createdAt,value
2018-06-03T00:00:06.374Z,24.77
2018-06-03T00:02:34.636Z,24.23
2018-06-03T00:05:02.940Z,25.23
2018-06-03T00:07:31.211Z,26.40
2018-06-03T00:10:00.231Z,25.60
2018-06-03T00:12:28.518Z,25.73
2018-06-03T00:14:56.799Z,26.47
2018-06-03T00:17:25.914Z,25.97
2018-06-03T00:19:55.030Z,27.23
2018-06-03T00:22:38.157Z,27.13
2018-06-03T00:25:07.214Z,26.07
2018-06-03T00:27:35.569Z,28.20
2018-06-03T00:30:04.587Z,27.80
2018-06-03T00:32:32.973Z,25.87
2018-06-03T00:35:01.241Z,28.33
2018-06-03T00:37:30.269Z,28.10
2018-06-03T00:39:58.562Z,27.43
2018-06-03T00:42:26.814Z,27.93
2018-06-03T00:44:55.854Z,28.50
2018-06-03T00:47:24.119Z,29.63
2018-06-03T00:49:53.162Z,28.90
2018-06-03T00:52:21.466Z,30.13
2018-06-03T00:54:49.752Z,30.03
2018-06-03T00:57:18.026Z,30.40
2018-06-03T00:59:46.302Z,31.07
2018-06-03T01:02:15.353Z,30.50
2018-06-03T01:04:43.626Z,30.97
2018-06-03T01:07:11.899Z,30.07
2018-06-03T01:09:40.184Z,32.20
2018-06-03T01:12:09.330Z,31.30
2018-06-03T01:14:37.703Z,31.63
2018-06-03T01:17:06.098Z,31.30
2018-06-03T01:19:34.359Z,31.17
2018-06-03T01:22:03.422Z,32.87
2018-06-03T01:24:31.716Z,32.37
2018-06-03T01:26:59.983Z,30.30
2018-06-03T01:29:28.268Z,30.63
2018-06-03T01:31:56.558Z,32.23
2018-06-03T01:34:24.821Z,32.83
2018-06-03T01:36:53.120Z,34.80
2018-06-03T01:39:21.416Z,32.70
2018-06-03T01:41:49.691Z,35.60
2018-06-03T01:44:17.977Z,33.60
2018-06-03T01:46:47.022Z,36.03
2018-06-03T01:49:15.295Z,36.10
2018-06-03T01:51:43.567Z,37.13
2018-06-03T01:54:11.864Z,33.37
2018-06-03T01:56:40.892Z,37.67
2018-06-03T01:59:09.155Z,36.00
2018-06-03T02:01:38.214Z,33.87
2018-06-03T02:04:07.390Z,38.93
2018-06-03T02:06:35.712Z,36.40
2018-06-03T02:09:03.988Z,27.20
2018-06-03T02:11:32.242Z,34.43
2018-06-03T02:14:01.263Z,35.10
2018-06-03T02:16:29.602Z,34.33
2018-06-03T02:18:57.885Z,33.77
2018-06-03T02:21:26.149Z,33.17
2018-06-03T02:23:54.526Z,31.53
2018-06-03T02:26:22.830Z,33.77
2018-06-03T02:28:51.233Z,34.53
2018-06-03T02:31:19.541Z,34.83
2018-06-03T02:33:47.842Z,32.37
2018-06-03T02:36:16.108Z,35.43
2018-06-03T02:38:44.380Z,31.53
2018-06-03T02:41:12.668Z,30.13
2018-06-03T02:43:40.941Z,32.47
2018-06-03T02:46:09.994Z,33.63
2018-06-03T02:48:39.260Z,35.17
2018-06-03T02:51:08.911Z,29.23
2018-06-03T02:53:37.259Z,34.67
2018-06-03T02:56:06.297Z,32.83
2018-06-03T02:58:35.119Z,34.27
2018-06-03T03:01:04.821Z,29.73
2018-06-03T03:03:33.471Z,34.10
2018-06-03T03:06:01.911Z,34.77
2018-06-03T03:08:30.564Z,34.33
2018-06-03T03:10:59.058Z,33.93
2018-06-03T03:13:27.422Z,35.20
2018-06-03T03:15:55.727Z,37.40
2018-06-03T03:18:24.634Z,35.33
2018-06-03T03:20:53.067Z,36.00
2018-06-03T03:23:22.430Z,35.97
2018-06-03T03:25:52.904Z,38.30
2018-06-03T03:28:22.848Z,36.87
2018-06-03T03:30:52.004Z,38.30
2018-06-03T03:33:22.317Z,40.20
2018-06-03T03:35:52.072Z,37.47
2018-06-03T03:38:22.553Z,37.30
2018-06-03T03:40:52.828Z,38.27
2018-06-03T03:43:22.513Z,39.77
2018-06-03T03:45:52.453Z,37.10
2018-06-03T03:48:21.633Z,38.57
2018-06-03T03:50:50.574Z,39.50
2018-06-03T03:53:20.810Z,37.33
2018-06-03T03:55:50.495Z,39.70
2018-06-03T03:58:19.998Z,38.83
2018-06-03T04:00:49.248Z,36.20
2018-06-03T04:03:17.569Z,36.47
2018-06-03T04:05:46.061Z,36.47
2018-06-03T04:08:14.460Z,35.47
2018-06-03T04:10:43.595Z,34.80
2018-06-03T04:13:11.955Z,34.63
2018-06-03T04:15:40.198Z,33.87
2018-06-03T04:18:08.504Z,33.67
2018-06-03T04:20:36.812Z,34.97
2018-06-03T04:23:05.109Z,37.20
2018-06-03T04:25:34.446Z,33.53
2018-06-03T04:28:02.701Z,32.70
2018-06-03T04:30:30.985Z,31.03
2018-06-03T04:32:59.236Z,33.53
2018-06-03T04:35:27.604Z,33.77
2018-06-03T04:37:55.890Z,33.70
2018-06-03T04:40:24.313Z,33.43
2018-06-03T04:42:52.628Z,35.60
2018-06-03T04:45:20.925Z,34.03
2018-06-03T04:47:50.905Z,32.87
2018-06-03T04:50:19.668Z,35.87
2018-06-03T04:52:49.264Z,34.37
2018-06-03T04:55:17.574Z,36.63
2018-06-03T04:57:45.845Z,35.27
2018-06-03T05:00:14.145Z,34.40
2018-06-03T05:02:42.474Z,36.60
2018-06-03T05:05:11.504Z,35.57
2018-06-03T05:07:39.972Z,34.63
2018-06-03T05:10:09.144Z,34.13
2018-06-03T05:12:37.409Z,33.47
2018-06-03T05:15:05.669Z,34.00
2018-06-03T05:17:33.928Z,35.17
2018-06-03T05:20:02.189Z,34.53
2018-06-03T05:22:30.466Z,36.50
2018-06-03T05:24:58.725Z,35.50
2018-06-03T05:27:26.998Z,35.90
2018-06-03T05:29:56.051Z,36.10
2018-06-03T05:35:21.565Z,34.57
2018-06-03T05:37:50.056Z,36.50
2018-06-03T05:40:18.483Z,37.00
2018-06-03T05:42:46.760Z,36.63
2018-06-03T05:45:15.082Z,36.30
2018-06-03T05:47:43.350Z,37.23
2018-06-03T05:50:11.625Z,35.93
2018-06-03T05:52:40.672Z,35.27
2018-06-03T05:55:08.949Z,34.33
2018-06-03T05:57:37.238Z,33.10
2018-06-03T06:00:05.504Z,33.37
2018-06-03T06:02:34.542Z,36.10
2018-06-03T06:05:02.819Z,32.70
2018-06-03T06:07:31.109Z,32.30
2018-06-03T06:09:59.377Z,31.67
2018-06-03T06:12:28.428Z,33.47
2018-06-03T06:14:56.701Z,32.40
2018-06-03T06:17:24.987Z,34.77
2018-06-03T06:19:53.258Z,33.07
2018-06-03T06:22:22.293Z,32.83
2018-06-03T06:24:50.631Z,31.87
2018-06-03T06:27:18.935Z,32.97
2018-06-03T06:29:47.979Z,32.70
2018-06-03T06:32:16.238Z,34.10
2018-06-03T06:34:46.042Z,33.70
2018-06-03T06:37:14.282Z,33.40
2018-06-03T06:39:42.551Z,35.03
2018-06-03T06:42:11.586Z,33.63
2018-06-03T06:44:39.890Z,33.47
2018-06-03T06:47:08.149Z,34.10
2018-06-03T06:49:36.443Z,32.73
2018-06-03T06:52:04.712Z,34.63
2018-06-03T06:54:33.743Z,33.87
2018-06-03T06:57:02.029Z,33.80
2018-06-03T06:59:30.330Z,34.30
2018-06-03T07:01:58.584Z,33.17
2018-06-03T07:04:26.871Z,31.67
2018-06-03T07:06:55.133Z,34.80
2018-06-03T07:09:23.467Z,34.70
2018-06-03T07:11:51.766Z,38.57
2018-06-03T07:14:20.816Z,35.80
2018-06-03T07:16:49.139Z,34.27
2018-06-03T07:19:17.407Z,34.40
2018-06-03T07:21:45.675Z,35.03
2018-06-03T07:24:13.973Z,35.67
2018-06-03T07:26:42.292Z,30.57
2018-06-03T07:29:10.642Z,34.03
2018-06-03T07:31:38.910Z,32.97
2018-06-03T07:34:07.943Z,27.93
2018-06-03T07:36:36.229Z,32.63
2018-06-03T07:39:04.775Z,34.77
2018-06-03T07:41:33.109Z,30.37
2018-06-03T07:44:02.170Z,34.07
2018-06-03T07:46:30.445Z,33.40
2018-06-03T07:48:58.728Z,30.97
2018-06-03T07:51:27.003Z,30.27
2018-06-03T07:53:55.304Z,32.37
2018-06-03T07:56:23.564Z,33.37
2018-06-03T07:58:51.849Z,33.40
2018-06-03T08:01:20.907Z,31.80
2018-06-03T08:03:49.213Z,34.77
2018-06-03T08:06:17.472Z,33.33
2018-06-03T08:08:45.746Z,33.90
2018-06-03T08:11:14.018Z,35.77
2018-06-03T08:13:43.139Z,35.43
2018-06-03T08:16:11.412Z,34.40
2018-06-03T08:18:40.061Z,33.47
2018-06-03T08:21:08.358Z,33.67
2018-06-03T08:23:36.627Z,36.63
2018-06-03T08:26:04.922Z,36.47
2018-06-03T08:28:33.231Z,33.27
2018-06-03T08:31:01.571Z,34.20
2018-06-03T08:33:30.641Z,35.23
2018-06-03T08:35:58.907Z,31.53
2018-06-03T08:38:27.171Z,37.30
2018-06-03T08:40:56.226Z,33.83
2018-06-03T08:43:24.636Z,36.40
2018-06-03T08:45:52.959Z,35.43
2018-06-03T08:48:21.288Z,34.97
2018-06-03T08:50:49.585Z,32.20
2018-06-03T08:53:17.852Z,32.47
2018-06-03T08:55:46.182Z,35.83
2018-06-03T08:58:14.440Z,31.10
2018-06-03T09:00:43.340Z,32.13
2018-06-03T09:03:11.603Z,34.77
2018-06-03T09:05:39.882Z,30.97
2018-06-03T09:08:08.900Z,32.73
2018-06-03T09:10:37.217Z,33.40
2018-06-03T09:13:05.498Z,33.90
2018-06-03T09:15:33.743Z,31.77
2018-06-03T09:18:02.806Z,32.23
2018-06-03T09:20:31.071Z,30.70
2018-06-03T09:23:00.290Z,30.37
2018-06-03T09:25:29.223Z,29.87
2018-06-03T09:27:58.442Z,30.30
2018-06-03T09:30:29.060Z,27.90
2018-06-03T09:32:57.525Z,29.30
2018-06-03T09:35:25.862Z,27.27
2018-06-03T09:37:54.191Z,29.53
2018-06-03T09:40:22.532Z,29.80
2018-06-03T09:42:50.827Z,26.97
2018-06-03T09:45:19.114Z,27.83
2018-06-03T09:47:47.363Z,27.77
2018-06-03T09:50:15.628Z,27.63
2018-06-03T09:52:43.913Z,26.83
2018-06-03T09:55:12.196Z,24.63
2018-06-03T09:57:40.470Z,26.60
2018-06-03T10:00:08.739Z,27.40
2018-06-03T10:02:37.004Z,23.70
2018-06-03T10:05:06.028Z,25.03
2018-06-03T10:07:34.303Z,27.50
2018-06-03T10:10:03.334Z,27.73
2018-06-03T10:12:32.185Z,27.87
2018-06-03T10:15:01.404Z,31.57
2018-06-03T10:17:30.216Z,32.10
2018-06-03T10:19:59.345Z,33.73
2018-06-03T10:22:28.402Z,29.77
2018-06-03T10:24:56.718Z,31.17
2018-06-03T10:27:24.995Z,30.27
2018-06-03T10:29:54.351Z,29.67
2018-06-03T10:32:22.721Z,29.17
2018-06-03T10:34:51.501Z,25.67
2018-06-03T10:37:25.700Z,27.10
2018-06-03T10:39:55.465Z,27.17
2018-06-03T10:42:23.808Z,26.57
2018-06-03T10:44:52.121Z,26.43
2018-06-03T10:47:20.378Z,26.27
2018-06-03T10:49:48.683Z,26.90
2018-06-03T10:52:16.950Z,25.40
2018-06-03T10:54:45.983Z,25.57
2018-06-03T10:57:15.751Z,24.17
2018-06-03T10:59:44.032Z,23.87
2018-06-03T11:02:12.300Z,24.23
2018-06-03T11:04:41.455Z,22.30
2018-06-03T11:07:12.732Z,21.60
2018-06-03T11:09:45.856Z,23.40
2018-06-03T11:12:14.529Z,21.70
2018-06-03T11:14:43.730Z,21.60
2018-06-03T11:17:13.096Z,20.90
2018-06-03T11:19:43.008Z,21.07
2018-06-03T11:22:11.563Z,19.93
2018-06-03T11:24:40.641Z,23.10
2018-06-03T11:27:11.226Z,22.77
2018-06-03T11:29:48.112Z,21.73
2018-06-03T11:32:19.504Z,32.10
2018-06-03T11:35:31.007Z,22.95
2018-06-03T11:38:00.931Z,22.60
2018-06-03T11:40:31.271Z,22.83
2018-06-03T11:43:00.914Z,26.10
2018-06-03T11:45:30.809Z,25.17
2018-06-03T11:48:01.033Z,24.10
2018-06-03T11:50:30.755Z,23.70
2018-06-03T11:53:00.315Z,23.77
2018-06-03T11:55:30.372Z,24.10
2018-06-03T12:00:11.397Z,26.17
2018-06-03T12:02:42.240Z,28.20
2018-06-03T12:05:14.687Z,29.97
2018-06-03T12:07:45.471Z,28.80
2018-06-03T12:10:19.895Z,42.07
2018-06-03T12:12:51.631Z,29.30
2018-06-03T12:15:21.927Z,33.37
2018-06-03T12:17:54.565Z,29.43
2018-06-03T12:20:27.405Z,28.27
2018-06-03T12:22:58.903Z,28.33
2018-06-03T12:25:29.547Z,28.70
2018-06-03T12:27:58.872Z,29.03
2018-06-03T12:30:28.225Z,29.10
2018-06-03T12:32:57.580Z,29.57
2018-06-03T12:35:27.148Z,28.53
2018-06-03T12:37:56.472Z,32.53
2018-06-03T12:40:25.802Z,29.87
2018-06-03T12:42:55.204Z,28.97
2018-06-03T12:45:24.599Z,30.53
2018-06-03T12:47:54.892Z,27.17
2018-06-03T12:50:24.321Z,27.77
2018-06-03T12:52:53.683Z,26.87
2018-06-03T12:55:23.135Z,28.57
2018-06-03T12:57:52.574Z,29.33
2018-06-03T13:00:21.933Z,28.67
2018-06-03T13:02:51.277Z,28.37
2018-06-03T13:05:20.729Z,27.67
2018-06-03T13:07:50.110Z,26.93
2018-06-03T13:10:19.517Z,29.37
2018-06-03T13:12:48.821Z,28.97
2018-06-03T13:15:18.176Z,29.23
2018-06-03T13:17:47.632Z,27.87
2018-06-03T13:20:16.910Z,28.30
2018-06-03T13:22:46.498Z,28.40
2018-06-03T13:25:15.809Z,28.90
2018-06-03T13:27:45.136Z,28.13
2018-06-03T13:30:14.459Z,28.40
2018-06-03T13:32:43.812Z,28.53
2018-06-03T13:35:15.967Z,28.63
2018-06-03T13:37:48.321Z,28.50
2018-06-03T13:40:20.596Z,28.00
2018-06-03T13:42:52.296Z,27.20
2018-06-03T13:45:25.261Z,27.50
2018-06-03T13:47:55.394Z,27.73
2018-06-03T13:50:25.484Z,30.23
2018-06-03T13:52:55.520Z,27.30
2018-06-03T13:55:24.826Z,27.37
2018-06-03T13:57:54.242Z,26.90
2018-06-03T14:00:23.511Z,25.23
2018-06-03T14:02:52.787Z,26.63
2018-06-03T14:05:23.866Z,25.90
2018-06-03T14:07:53.685Z,26.97
2018-06-03T14:10:22.980Z,26.13
2018-06-03T14:12:52.357Z,26.40
2018-06-03T14:15:21.797Z,25.30
2018-06-03T14:17:51.170Z,25.13
2018-06-03T14:20:20.478Z,25.20
2018-06-03T14:22:54.230Z,23.50
2018-06-03T14:25:23.540Z,23.93
2018-06-03T14:27:52.797Z,24.70
2018-06-03T14:30:22.145Z,24.13
2018-06-03T14:32:51.437Z,25.03
2018-06-03T14:35:20.780Z,24.07
2018-06-03T14:37:50.072Z,24.30
2018-06-03T14:40:19.695Z,23.43
2018-06-03T14:42:49.169Z,22.97
2018-06-03T14:45:18.633Z,24.30
2018-06-03T14:47:47.928Z,25.10
2018-06-03T14:50:17.416Z,23.57
2018-06-03T14:52:46.811Z,23.90
2018-06-03T14:55:16.379Z,23.30
2018-06-03T14:57:46.069Z,22.03
2018-06-03T15:00:15.527Z,23.23
2018-06-03T15:02:45.162Z,23.63
2018-06-03T15:05:15.231Z,24.37
2018-06-03T15:07:45.449Z,24.80
2018-06-03T15:10:15.330Z,24.40
2018-06-03T15:12:45.486Z,26.43
2018-06-03T15:15:15.116Z,23.57
2018-06-03T15:17:44.896Z,25.20
2018-06-03T15:20:14.925Z,24.07
2018-06-03T15:22:44.624Z,24.10
2018-06-03T15:25:14.367Z,24.47
2018-06-03T15:27:44.015Z,23.73
2018-06-03T15:30:15.981Z,25.07
2018-06-03T15:32:45.631Z,23.70
2018-06-03T15:35:16.438Z,24.43
2018-06-03T15:37:47.678Z,22.87
2018-06-03T15:40:17.809Z,24.10
2018-06-03T15:42:47.639Z,23.73
2018-06-03T15:45:17.492Z,22.37
2018-06-03T15:47:47.270Z,22.10
2018-06-03T15:50:17.241Z,24.33
2018-06-03T15:52:53.440Z,23.90
2018-06-03T15:55:23.014Z,23.63
2018-06-03T15:57:52.521Z,22.80
2018-06-03T16:00:22.004Z,23.33
2018-06-03T16:02:51.769Z,23.07
2018-06-03T16:05:21.249Z,19.83
2018-06-03T16:07:50.746Z,20.10
2018-06-03T16:10:20.255Z,20.90
2018-06-03T16:12:49.860Z,21.73
2018-06-03T16:15:19.356Z,20.97
2018-06-03T16:17:48.769Z,19.80
2018-06-03T16:20:18.331Z,20.10
2018-06-03T16:22:47.815Z,19.33
2018-06-03T16:25:17.085Z,18.00
2018-06-03T16:27:46.658Z,19.00
2018-06-03T16:30:16.183Z,18.50
2018-06-03T16:32:45.997Z,20.43
2018-06-03T16:35:15.797Z,17.33
2018-06-03T16:37:46.498Z,17.10
2018-06-03T16:40:16.986Z,16.97
2018-06-03T16:42:46.632Z,16.60
2018-06-03T16:45:16.369Z,15.60
2018-06-03T16:47:46.128Z,15.40
2018-06-03T16:50:15.875Z,16.40
2018-06-03T16:52:45.510Z,15.83
2018-06-03T16:55:18.851Z,15.70
2018-06-03T16:57:48.429Z,15.70
2018-06-03T17:00:18.302Z,15.95
2018-06-03T17:02:47.751Z,15.73
2018-06-03T17:05:17.249Z,16.70
2018-06-03T17:07:50.380Z,17.00
2018-06-03T17:10:19.763Z,16.60
2018-06-03T17:12:49.133Z,17.80
2018-06-03T17:15:18.608Z,16.70
2018-06-03T17:17:47.990Z,16.60
2018-06-03T17:20:17.538Z,17.23
2018-06-03T17:22:46.888Z,16.77
2018-06-03T17:25:16.251Z,16.00
2018-06-03T17:27:46.581Z,15.60
2018-06-03T17:30:15.845Z,15.03
2018-06-03T17:32:45.247Z,13.97
2018-06-03T17:35:14.660Z,13.30
2018-06-03T17:37:44.057Z,13.53
2018-06-03T17:40:13.505Z,13.00
2018-06-03T17:42:42.868Z,14.23
2018-06-03T17:45:12.283Z,13.03
2018-06-03T17:47:41.788Z,12.53
2018-06-03T17:50:11.315Z,13.17
2018-06-03T17:52:40.847Z,13.10
2018-06-03T17:55:10.620Z,12.40
2018-06-03T17:57:40.010Z,12.53
2018-06-03T18:00:09.532Z,13.47
2018-06-03T18:02:39.018Z,11.50
2018-06-03T18:05:08.430Z,12.27
2018-06-03T18:07:37.804Z,11.47
2018-06-03T18:10:07.172Z,12.87
2018-06-03T18:12:36.489Z,11.83
2018-06-03T18:15:05.586Z,11.73
2018-06-03T18:17:36.378Z,11.93
2018-06-03T18:20:05.964Z,11.10
2018-06-03T18:22:35.288Z,12.10
2018-06-03T18:25:04.635Z,12.57
2018-06-03T18:27:33.926Z,13.03
2018-06-03T18:30:03.215Z,12.40
2018-06-03T18:32:32.508Z,12.37
2018-06-03T18:35:01.864Z,11.73
2018-06-03T18:37:31.170Z,11.63
2018-06-03T18:40:00.479Z,11.70
2018-06-03T18:42:29.840Z,11.50
2018-06-03T18:44:59.191Z,12.73
2018-06-03T18:47:28.480Z,13.43
2018-06-03T18:49:57.760Z,13.23
2018-06-03T18:52:28.044Z,12.93
2018-06-03T18:54:57.402Z,12.03
2018-06-03T18:57:26.719Z,11.57
2018-06-03T18:59:55.997Z,12.67
2018-06-03T19:02:25.359Z,13.07
2018-06-03T19:04:54.624Z,12.63
2018-06-03T19:07:24.044Z,12.73
2018-06-03T19:09:53.367Z,12.33
2018-06-03T19:12:22.919Z,12.93
2018-06-03T19:14:52.225Z,12.00
2018-06-03T19:17:21.540Z,12.90
2018-06-03T19:19:50.967Z,12.03
2018-06-03T19:22:20.363Z,14.53
2018-06-03T19:24:49.742Z,13.20
2018-06-03T19:27:19.199Z,12.30
2018-06-03T19:29:48.559Z,13.00
2018-06-03T19:32:18.062Z,12.63
2018-06-03T19:34:47.565Z,12.73
2018-06-03T19:37:16.968Z,12.93
2018-06-03T19:39:46.193Z,11.63
2018-06-03T19:42:15.719Z,13.17
2018-06-03T19:44:45.032Z,12.17
2018-06-03T19:47:14.782Z,13.10
2018-06-03T19:52:25.220Z,12.93
2018-06-03T19:54:54.619Z,14.03
2018-06-03T19:57:24.001Z,13.13
2018-06-03T19:59:53.437Z,13.40
2018-06-03T20:02:22.728Z,13.03
2018-06-03T20:04:52.237Z,12.27
2018-06-03T20:07:21.766Z,11.77
2018-06-03T20:09:51.314Z,12.50
2018-06-03T20:12:20.864Z,12.70
2018-06-03T20:14:50.469Z,13.33
2018-06-03T20:17:19.864Z,11.83
2018-06-03T20:19:49.261Z,12.63
2018-06-03T20:22:18.689Z,11.83
2018-06-03T20:24:48.451Z,12.87
2018-06-03T20:27:17.763Z,11.90
2018-06-03T20:29:47.069Z,13.00
2018-06-03T20:32:16.916Z,12.33
2018-06-03T20:34:46.313Z,12.30
2018-06-03T20:37:15.871Z,12.83
2018-06-03T20:39:45.330Z,12.30
2018-06-03T20:42:14.913Z,13.63
2018-06-03T20:44:44.387Z,13.17
2018-06-03T20:47:13.839Z,11.97
2018-06-03T20:49:43.276Z,12.07
2018-06-03T20:52:12.896Z,12.93
2018-06-03T20:54:42.222Z,13.47
2018-06-03T20:57:11.581Z,12.60
2018-06-03T20:59:41.262Z,12.37
2018-06-03T21:02:10.757Z,12.10
2018-06-03T21:04:40.146Z,11.47
2018-06-03T21:07:09.672Z,12.37
2018-06-03T21:09:39.061Z,12.53
2018-06-03T21:12:08.542Z,12.60
2018-06-03T21:14:38.996Z,12.57
2018-06-03T21:17:08.356Z,12.40
2018-06-03T21:19:37.687Z,13.60
2018-06-03T21:22:06.975Z,14.70
2018-06-03T21:24:37.271Z,12.87
2018-06-03T21:27:06.518Z,14.57
2018-06-03T21:29:35.888Z,13.83
2018-06-03T21:32:05.190Z,14.10
2018-06-03T21:34:34.482Z,12.73
2018-06-03T21:37:03.803Z,12.70
2018-06-03T21:39:33.241Z,12.50
2018-06-03T21:42:02.547Z,12.37
2018-06-03T21:44:31.891Z,13.33
2018-06-03T21:47:01.913Z,12.60
2018-06-03T21:49:31.216Z,11.97
2018-06-03T21:52:00.359Z,12.23
2018-06-03T21:54:33.501Z,12.77
2018-06-03T21:57:02.996Z,12.87
2018-06-03T21:59:32.372Z,11.93
2018-06-03T22:02:01.677Z,12.20
2018-06-03T22:04:30.960Z,12.00
2018-06-03T22:07:00.274Z,12.93
2018-06-03T22:09:29.626Z,14.37
2018-06-03T22:11:58.887Z,13.20
2018-06-03T22:14:37.898Z,13.37
2018-06-03T22:17:33.093Z,14.47
2018-06-03T22:20:05.919Z,14.33
2018-06-03T22:22:35.232Z,15.00
2018-06-03T22:25:04.656Z,13.60
2018-06-03T22:27:34.046Z,14.07
2018-06-03T22:30:03.579Z,14.73
2018-06-03T22:32:35.030Z,13.37
2018-06-03T22:35:04.150Z,12.97
2018-06-03T22:37:33.466Z,14.33
2018-06-03T22:40:02.903Z,14.83
2018-06-03T22:42:32.274Z,12.77
2018-06-03T22:45:01.562Z,14.43
2018-06-03T22:48:09.961Z,13.67
2018-06-03T22:50:40.212Z,13.73
2018-06-03T22:53:09.678Z,14.10
2018-06-03T22:55:42.209Z,13.93
2018-06-03T22:58:11.817Z,12.67
2018-06-03T23:00:41.427Z,14.70
2018-06-03T23:03:14.962Z,14.50
2018-06-03T23:05:44.451Z,13.13
2018-06-03T23:08:13.907Z,13.57
2018-06-03T23:10:43.351Z,12.63
2018-06-03T23:13:12.789Z,13.80
2018-06-03T23:15:42.222Z,13.43
2018-06-03T23:18:11.750Z,12.87
2018-06-03T23:32:28.830Z,14.00
2018-06-03T23:34:58.120Z,13.73
2018-06-03T23:37:27.459Z,15.20
2018-06-03T23:39:56.885Z,14.00
2018-06-03T23:42:26.172Z,13.43
2018-06-03T23:44:55.447Z,15.17
2018-06-03T23:47:24.873Z,14.03
2018-06-03T23:49:54.249Z,13.13
2018-06-03T23:52:23.504Z,14.57
2018-06-03T23:54:52.874Z,16.23
2018-06-03T23:57:22.102Z,13.27
2018-06-03T23:59:51.377Z,14.77
